In Rescue
 
Open Full Screen Window  High Contrast Mode
Wind Gusting 00 knots
07
October 25, 2021 3:11 PM CDT
Weather Information
Wind Direction
  130 °
Wind Speed
  07 kt (8 mph)
Wind Gust
  00 kt (0 mph)
Altimeter
30.14 in
Visibility
10 SM
Temperature
07° C
45° F
Dewpoint
00° C
32° F
Humidity
61%
1hr Rain Fall
00.00 in.
24hr Rain Fall
00.00 in.
Sky Condition
Scattered @ 3,400 ft
VFR

METAR KBJI 252011Z AUTO 13007KT 10SM SCT034 07/00 A3014 RMK AO2 T00730000

FAA Disclaimer: The data displayed is for advisory purposes only and is not to be used for flight planning or operations.